Time;durP1;ratioP1;P1;durP2;ratioP2;P2;SDS_P1;SDS_P2;PMS_P1;PMS_P2;Temp;Humidity;BMP_temperature;BMP_pressure;BME280_temperature;BME280_humidity;BME280_pressure;Samples;Min_cycle;Max_cycle;Signal;HPM_P1;HPM_P2
2022/05/02 00:00:28;;;;;;;;;17.25;15.25;;;;;11.79;52.92;101119.50;5061142;28;45519;-80
2022/05/02 00:02:53;;;;;;;;;18.50;15.00;;;;;11.72;53.15;101104.63;5062484;28;45384;-81
2022/05/02 00:05:19;;;;;;;;;9.75;7.00;;;;;11.70;53.02;101111.72;5057154;28;45371;-81
2022/05/02 00:07:45;;;;;;;;;21.50;16.00;;;;;11.74;53.41;101110.78;5057008;28;45444;-78
2022/05/02 00:10:14;;;;;;;;;17.75;15.50;;;;;11.72;53.17;101108.16;5055224;28;45407;-78
2022/05/02 00:12:39;;;;;;;;;17.75;15.50;;;;;11.74;53.08;101103.69;5056685;28;45406;-79
2022/05/02 00:15:06;;;;;;;;;12.75;12.75;;;;;11.76;53.42;101102.81;5069812;28;45315;-78
2022/05/02 00:20:16;;;;;;;;;11.75;11.75;;;;;11.75;53.25;101099.25;5075187;28;45329;-78
2022/05/02 00:22:41;;;;;;;;;13.00;12.75;;;;;11.70;53.32;101095.84;5059409;27;45267;-78
2022/05/02 00:25:08;;;;;;;;;6.00;6.00;;;;;11.68;53.25;101092.34;5068102;27;45655;-78
2022/05/02 00:27:33;;;;;;;;;19.25;15.00;;;;;11.70;53.45;101090.53;5078515;27;45680;-78
2022/05/02 00:29:59;;;;;;;;;14.25;12.50;;;;;11.68;53.24;101093.22;5062182;27;45389;-78
2022/05/02 00:32:25;;;;;;;;;16.75;11.50;;;;;11.66;53.19;101088.81;5056678;28;45513;-78
2022/05/02 00:34:50;;;;;;;;;10.50;9.00;;;;;11.69;53.04;101089.69;5056967;28;45581;-78
2022/05/02 00:37:17;;;;;;;;;16.50;13.75;;;;;11.71;53.17;101087.00;5056322;28;45906;-77
2022/05/02 00:39:42;;;;;;;;;20.00;14.75;;;;;11.69;53.20;101092.31;5056374;28;45386;-78
2022/05/02 00:42:08;;;;;;;;;6.00;1.50;;;;;11.56;53.51;101073.09;5055845;28;45405;-77
2022/05/02 00:44:33;;;;;;;;;6.00;6.00;;;;;11.60;53.58;101078.34;5063782;28;45464;-79
2022/05/02 00:46:58;;;;;;;;;12.75;6.00;;;;;11.61;53.43;101080.09;5076081;27;45415;-78
2022/05/02 00:49:24;;;;;;;;;16.00;12.00;;;;;11.55;53.57;101070.47;5063729;27;45343;-78
2022/05/02 00:51:49;;;;;;;;;12.50;12.50;;;;;11.53;53.03;101075.78;5063535;28;45672;-77
2022/05/02 00:54:15;;;;;;;;;18.00;12.75;;;;;11.52;53.42;101075.81;5061384;28;45426;-78
2022/05/02 00:56:41;;;;;;;;;15.25;14.50;;;;;11.46;53.46;101063.53;5058906;28;46683;-78
2022/05/02 00:59:11;;;;;;;;;10.50;9.25;;;;;11.48;53.60;101064.41;5058167;28;45490;-78
2022/05/02 01:01:36;;;;;;;;;11.75;7.00;;;;;11.46;53.56;101055.59;5056137;28;45449;-78
2022/05/02 01:04:02;;;;;;;;;12.50;12.25;;;;;11.43;53.72;101058.31;5056103;28;45477;-78
2022/05/02 01:09:11;;;;;;;;;4.75;0.50;;;;;11.45;53.85;101052.97;5055239;28;45548;-78
2022/05/02 01:11:36;;;;;;;;;11.50;7.50;;;;;11.34;53.90;101037.28;5054812;28;45449;-77
2022/05/02 01:14:01;;;;;;;;;10.50;10.50;;;;;11.40;54.31;101045.13;5055232;28;45563;-78
2022/05/02 01:16:29;;;;;;;;;10.50;10.00;;;;;11.39;54.08;101043.41;5055127;28;46275;-77
2022/05/02 01:18:57;;;;;;;;;16.25;14.75;;;;;11.34;54.18;101040.81;5054315;28;45532;-78
2022/05/02 01:21:29;;;;;;;;;12.00;10.00;;;;;11.32;54.43;101041.72;5055196;28;45364;-78
2022/05/02 01:23:58;;;;;;;;;9.00;9.00;;;;;11.28;54.12;101034.72;5057494;28;45515;-77
2022/05/02 01:26:23;;;;;;;;;15.50;10.00;;;;;11.29;54.24;101042.66;5061766;28;45326;-78
2022/05/02 01:28:51;;;;;;;;;9.75;9.00;;;;;11.29;54.45;101041.78;5065883;27;45489;-78
2022/05/02 01:31:19;;;;;;;;;14.50;12.00;;;;;11.25;54.06;101040.97;5054980;28;45422;-78
2022/05/02 01:33:46;;;;;;;;;7.75;3.75;;;;;11.22;54.75;101040.13;5055483;28;45397;-77
2022/05/02 01:36:11;;;;;;;;;20.25;15.25;;;;;11.19;54.58;101041.94;5054478;28;45414;-77
2022/05/02 01:38:37;;;;;;;;;16.00;12.75;;;;;11.17;54.54;101043.72;5064501;28;45307;-77
2022/05/02 01:41:04;;;;;;;;;8.00;8.00;;;;;11.14;54.48;101046.41;5074779;27;45508;-79
2022/05/02 01:43:30;;;;;;;;;10.00;9.00;;;;;11.08;54.54;101035.03;5070183;28;45328;-78
2022/05/02 01:45:55;;;;;;;;;12.00;7.50;;;;;11.10;54.50;101043.81;5055588;28;46215;-76
2022/05/02 01:48:20;;;;;;;;;17.75;14.75;;;;;11.02;54.54;101033.34;5055047;28;45684;-78
2022/05/02 01:50:46;;;;;;;;;4.00;4.00;;;;;11.02;54.46;101034.25;5055341;28;45541;-78
2022/05/02 01:53:11;;;;;;;;;12.75;12.50;;;;;10.96;54.43;101036.09;5071371;28;45522;-78
2022/05/02 01:55:36;;;;;;;;;10.00;9.50;;;;;10.95;54.57;101029.94;5074521;28;46168;-77
2022/05/02 01:58:02;;;;;;;;;13.25;9.75;;;;;11.00;54.51;101040.44;5069666;28;45512;-77
2022/05/02 02:00:27;;;;;;;;;14.00;11.50;;;;;10.96;54.48;101039.63;5059852;28;45495;-77
2022/05/02 02:02:53;;;;;;;;;11.25;10.00;;;;;10.96;54.62;101042.28;5059612;27;45429;-75
2022/05/02 02:08:02;;;;;;;;;10.00;10.00;;;;;10.94;54.78;101037.88;5053969;28;45571;-77
2022/05/02 02:10:28;;;;;;;;;18.25;13.50;;;;;10.92;54.82;101037.06;5053521;28;45364;-79
2022/05/02 02:12:53;;;;;;;;;18.25;12.25;;;;;10.84;54.63;101030.09;5057435;28;45373;-78
2022/05/02 02:15:18;;;;;;;;;10.25;9.25;;;;;10.89;54.68;101037.97;5054685;28;45591;-77
2022/05/02 02:17:44;;;;;;;;;9.25;6.00;;;;;10.89;54.68;101037.97;5057641;28;45395;-78
2022/05/02 02:20:12;;;;;;;;;12.00;12.00;;;;;10.84;54.78;101030.09;5072417;27;45489;-78
2022/05/02 02:22:37;;;;;;;;;12.75;11.25;;;;;10.77;54.82;101023.13;5053705;28;45591;-78
2022/05/02 02:25:04;;;;;;;;;15.25;11.00;;;;;10.82;54.70;101037.16;5056662;28;45453;-79
2022/05/02 02:27:31;;;;;;;;;12.25;8.50;;;;;10.80;54.79;101033.66;5073158;28;45423;-78
2022/05/02 02:29:56;;;;;;;;;12.25;10.50;;;;;10.81;55.02;101032.78;5056604;28;45380;-78
2022/05/02 02:32:22;;;;;;;;;10.00;10.00;;;;;10.77;55.21;101028.41;5063456;28;45434;-78
2022/05/02 02:34:47;;;;;;;;;9.25;9.25;;;;;10.77;55.03;101025.78;5075889;27;46009;-79
2022/05/02 02:37:13;;;;;;;;;12.50;7.00;;;;;10.73;55.28;101020.53;5072098;28;45484;-78
2022/05/02 02:39:38;;;;;;;;;18.00;13.25;;;;;10.71;55.24;101015.28;5064138;28;45335;-76
2022/05/02 02:42:04;;;;;;;;;23.00;13.50;;;;;10.72;55.16;101024.06;5074502;27;45378;-77
2022/05/02 02:44:30;;;;;;;;;15.25;11.50;;;;;10.64;55.34;101011.84;5074106;27;45341;-78
2022/05/02 02:46:55;;;;;;;;;12.50;12.50;;;;;10.73;55.20;101026.69;5071470;27;45548;-78
2022/05/02 02:49:20;;;;;;;;;19.00;16.50;;;;;10.64;55.19;101014.50;5055848;27;45508;-77
2022/05/02 02:51:46;;;;;;;;;15.75;14.50;;;;;10.67;55.20;101021.50;5056220;28;45568;-81
2022/05/02 02:54:12;;;;;;;;;11.75;11.00;;;;;10.63;55.42;101018.03;5074470;28;46115;-81
2022/05/02 02:56:37;;;;;;;;;14.50;12.25;;;;;10.61;55.36;101018.94;5078362;28;45383;-81
2022/05/02 02:59:03;;;;;;;;;17.25;12.75;;;;;10.57;55.74;101011.97;5065029;28;45307;-80
2022/05/02 03:01:28;;;;;;;;;14.50;14.50;;;;;10.59;55.19;101028.66;5055501;28;45350;-81
2022/05/02 03:03:54;;;;;;;;;15.50;15.50;;;;;10.47;55.28;100997.97;5055262;28;46337;-81
2022/05/02 03:06:19;;;;;;;;;18.00;14.25;;;;;10.46;55.55;100993.56;5059539;28;45402;-82
2022/05/02 03:08:44;;;;;;;;;21.00;16.00;;;;;10.56;55.83;101012.84;5057811;28;46030;-82
2022/05/02 03:11:11;;;;;;;;;15.25;15.25;;;;;10.50;55.51;101005.88;5056818;28;45753;-81
2022/05/02 03:13:36;;;;;;;;;16.00;14.00;;;;;10.53;55.60;101008.47;5058569;28;45573;-80
2022/05/02 03:16:03;;;;;;;;;20.50;15.25;;;;;10.54;55.93;101010.22;5058591;28;45435;-82
2022/05/02 03:18:29;;;;;;;;;16.75;13.50;;;;;10.53;55.74;101004.97;5070816;27;45480;-82
2022/05/02 03:20:54;;;;;;;;;15.75;14.00;;;;;10.49;55.99;101004.09;5076951;28;45577;-82
2022/05/02 03:23:21;;;;;;;;;3.50;3.50;;;;;10.44;56.24;100993.59;5084489;27;47586;-80
2022/05/02 03:25:47;;;;;;;;;23.50;18.00;;;;;10.37;56.19;100985.75;5089921;27;45493;-81
2022/05/02 03:28:13;;;;;;;;;16.50;12.50;;;;;10.40;55.88;100997.19;5063842;28;45342;-82
2022/05/02 03:30:38;;;;;;;;;21.75;15.75;;;;;10.41;56.13;100998.06;5060824;28;45418;-81
2022/05/02 03:33:04;;;;;;;;;18.00;14.50;;;;;10.39;55.82;100989.28;5058655;28;47439;-83
2022/05/02 03:35:29;;;;;;;;;18.75;16.50;;;;;10.34;56.13;100991.97;5060010;28;45602;-81
2022/05/02 03:37:55;;;;;;;;;17.75;17.00;;;;;10.33;56.04;100987.59;5058717;28;45648;-81
2022/05/02 03:40:20;;;;;;;;;20.00;18.00;;;;;10.29;56.28;100991.13;5077177;28;45536;-82
2022/05/02 03:42:45;;;;;;;;;18.50;13.00;;;;;10.23;56.45;100989.44;5078519;27;45916;-82
2022/05/02 03:45:11;;;;;;;;;26.50;18.00;;;;;10.30;56.63;100995.50;5079256;27;45506;-81
2022/05/02 03:47:37;;;;;;;;;19.00;13.75;;;;;10.29;56.48;100993.75;5063824;27;45357;-82
2022/05/02 03:50:03;;;;;;;;;26.00;20.25;;;;;10.28;56.12;100998.19;5058848;28;45504;-81
2022/05/02 03:52:28;;;;;;;;;23.00;18.75;;;;;10.27;56.12;100992.91;5061774;28;45390;-81
2022/05/02 03:54:54;;;;;;;;;8.00;7.00;;;;;10.26;56.43;100991.16;5083797;28;45271;-81
2022/05/02 03:57:19;;;;;;;;;22.50;20.00;;;;;10.26;56.20;100994.69;5074494;27;45426;-81
2022/05/02 03:59:46;;;;;;;;;21.75;17.50;;;;;10.26;56.35;100993.78;5062317;28;45677;-81
2022/05/02 04:02:12;;;;;;;;;22.25;17.25;;;;;10.17;56.43;100984.19;5058713;28;46374;-82
2022/05/02 04:04:38;;;;;;;;;24.75;16.75;;;;;10.10;56.69;100974.63;5058758;28;45543;-81
2022/05/02 04:07:03;;;;;;;;;11.75;10.50;;;;;10.11;56.71;100974.59;5068500;28;45838;-81
2022/05/02 04:09:28;;;;;;;;;18.50;17.00;;;;;10.20;56.71;100983.31;5067344;27;45461;-81
2022/05/02 04:11:54;;;;;;;;;19.50;18.75;;;;;10.21;56.55;100995.63;5078273;28;45337;-81
2022/05/02 04:14:19;;;;;;;;;20.00;15.50;;;;;10.20;56.91;100996.50;5076163;28;45282;-82
2022/05/02 04:16:44;;;;;;;;;17.00;16.50;;;;;10.17;56.94;100993.91;5079835;27;45321;-81
2022/05/02 04:19:11;;;;;;;;;11.00;10.00;;;;;10.10;56.80;100988.69;5071986;28;45452;-81
2022/05/02 04:21:36;;;;;;;;;22.00;15.75;;;;;10.13;56.70;100993.94;5057009;28;45469;-81
2022/05/02 04:24:02;;;;;;;;;18.25;15.50;;;;;10.10;56.82;100986.06;5057587;28;45389;-81
2022/05/02 04:26:28;;;;;;;;;18.50;15.50;;;;;10.11;57.00;100990.47;5062288;28;45449;-81
2022/05/02 04:28:53;;;;;;;;;18.25;18.25;;;;;10.11;57.05;100990.47;5060914;28;45567;-83
2022/05/02 04:31:18;;;;;;;;;12.75;11.50;;;;;10.11;56.81;100987.81;5077294;28;47012;-82
2022/05/02 04:33:45;;;;;;;;;15.50;13.50;;;;;10.16;56.89;100997.44;5075890;27;45506;-82
2022/05/02 04:36:11;;;;;;;;;17.00;14.75;;;;;10.01;57.08;100965.03;5072987;27;45453;-82
2022/05/02 04:38:36;;;;;;;;;12.00;9.50;;;;;10.17;56.64;100988.63;5058612;28;45335;-82
2022/05/02 04:41:02;;;;;;;;;19.25;14.00;;;;;10.07;56.95;100972.03;5078487;27;45464;-82
2022/05/02 04:43:27;;;;;;;;;16.50;14.25;;;;;10.23;56.69;100988.53;5079422;27;45377;-83
2022/05/02 04:45:53;;;;;;;;;18.00;18.00;;;;;10.24;56.56;100987.66;5076262;28;45396;-82
2022/05/02 04:48:18;;;;;;;;;18.25;18.25;;;;;10.31;56.37;100992.00;5076838;28;45381;-82
2022/05/02 04:50:44;;;;;;;;;19.00;15.25;;;;;10.37;56.62;100991.94;5075867;28;46078;-82
2022/05/02 04:53:09;;;;;;;;;18.50;16.00;;;;;10.44;56.16;101001.53;5078762;27;45268;-82
2022/05/02 04:55:34;;;;;;;;;16.25;12.50;;;;;10.49;55.90;100986.50;5087081;27;45248;-82
2022/05/02 04:58:00;;;;;;;;;16.00;15.00;;;;;10.66;55.51;100988.03;5083206;28;45542;-82
2022/05/02 05:00:25;;;;;;;;;23.50;16.50;;;;;10.80;55.05;100991.34;5060101;28;45457;-80
2022/05/02 05:02:51;;;;;;;;;21.25;18.00;;;;;11.03;54.73;101004.22;5073333;28;45433;-83
2022/05/02 05:05:17;;;;;;;;;20.00;15.75;;;;;11.17;54.27;100988.16;5078431;27;45337;-82
2022/05/02 05:07:43;;;;;;;;;19.00;16.00;;;;;11.32;53.31;100986.16;5076481;27;45526;-81
2022/05/02 05:10:09;;;;;;;;;23.00;21.00;;;;;11.45;53.17;100985.06;5069654;28;46335;-78
2022/05/02 05:12:49;;;;;;;;;21.00;18.25;;;;;11.64;52.81;100990.88;5075488;27;45417;-79
2022/05/02 05:18:35;;;;;;;;;17.00;15.75;;;;;12.00;51.59;100992.94;5055017;28;45385;-79
2022/05/02 05:21:08;;;;;;;;;18.75;14.25;;;;;11.95;51.35;100979.78;5055686;28;46034;-79
2022/05/02 05:24:02;;;;;;;;;11.75;11.75;;;;;12.02;51.52;100988.47;5057351;28;45440;-79
2022/05/02 05:26:58;;;;;;;;;21.50;15.50;;;;;11.98;51.59;100995.63;5039606;28;45466;-82
2022/05/02 05:30:01;;;;;;;;;19.25;16.50;;;;;11.89;51.84;100991.31;5038780;28;45505;-83
2022/05/02 05:32:37;;;;;;;;;25.00;18.50;;;;;11.97;51.38;100995.66;5055913;28;46439;-82
2022/05/02 05:35:05;;;;;;;;;15.50;14.50;;;;;12.05;51.02;100991.06;5053483;28;45524;-83
2022/05/02 05:37:39;;;;;;;;;24.00;17.00;;;;;12.17;51.08;100989.94;5048858;28;45407;-82
2022/05/02 05:40:22;;;;;;;;;21.25;21.25;;;;;12.29;50.80;100994.13;5043808;28;45350;-83
2022/05/02 05:43:18;;;;;;;;;27.25;21.50;;;;;12.49;50.50;100993.72;5034454;28;45525;-82
2022/05/02 05:45:56;;;;;;;;;18.25;12.25;;;;;12.84;49.97;100998.22;5037234;28;45429;-82
2022/05/02 05:48:52;;;;;;;;;26.00;23.75;;;;;13.11;49.45;100993.19;5052915;28;45563;-81
2022/05/02 05:51:37;;;;;;;;;22.25;16.25;;;;;13.21;49.14;100986.78;5021142;28;45601;-82
2022/05/02 05:54:27;;;;;;;;;22.00;19.50;;;;;13.10;48.45;100988.78;5018092;28;46923;-82
2022/05/02 05:56:53;;;;;;;;;15.00;12.75;;;;;13.09;49.11;100995.03;5053564;28;45322;-80
2022/05/02 05:59:27;;;;;;;;;23.50;21.50;;;;;13.02;49.31;100988.13;5051301;28;45398;-81
2022/05/02 06:02:32;;;;;;;;;20.00;19.25;;;;;12.98;49.29;100992.59;5034694;28;45441;-82
2022/05/02 06:04:58;;;;;;;;;17.00;16.00;;;;;12.91;48.84;100994.53;5014054;28;45528;-81
2022/05/02 06:07:27;;;;;;;;;25.00;19.00;;;;;12.87;49.48;100992.00;5014689;28;45438;-81
2022/05/02 06:10:00;;;;;;;;;32.00;19.50;;;;;12.83;49.50;100988.56;5031227;28;45504;-81
2022/05/02 06:12:29;;;;;;;;;18.25;15.75;;;;;12.81;49.21;100979.72;5034697;28;45486;-81
2022/05/02 06:20:31;;;;;;;;;26.25;20.50;;;;;12.86;49.82;101004.41;5035250;28;45574;-81
2022/05/02 06:22:59;;;;;;;;;21.25;16.50;;;;;12.82;49.80;100994.75;5014572;28;45424;-81
2022/05/02 06:25:29;;;;;;;;;30.50;24.50;;;;;12.81;49.28;101003.59;5020736;28;45404;-84
2022/05/02 06:27:56;;;;;;;;;32.75;27.00;;;;;12.84;49.70;101007.97;5025935;28;45347;-80
2022/05/02 06:30:23;;;;;;;;;23.00;21.25;;;;;12.89;49.34;101006.97;5032351;28;45682;-80
2022/05/02 06:32:51;;;;;;;;;24.25;20.50;;;;;12.94;49.70;100994.47;5033168;28;45404;-81
2022/05/02 06:35:17;;;;;;;;;29.00;24.25;;;;;13.09;49.03;100989.72;5032292;28;46188;-80
2022/05/02 06:38:05;;;;;;;;;23.25;19.00;;;;;13.28;49.17;100992.78;5014561;28;45494;-80
2022/05/02 06:40:41;;;;;;;;;28.50;25.75;;;;;13.31;48.50;100996.22;5018085;28;45459;-81
2022/05/02 06:43:20;;;;;;;;;33.25;25.75;;;;;13.37;48.37;101002.34;5015374;28;45293;-80
2022/05/02 06:45:56;;;;;;;;;28.25;20.00;;;;;13.48;48.52;100997.63;5014383;28;45497;-81
2022/05/02 06:48:24;;;;;;;;;39.50;34.25;;;;;13.48;47.92;100990.56;5016852;28;45451;-81
2022/05/02 06:51:02;;;;;;;;;26.75;24.00;;;;;13.43;47.98;100996.88;5034485;28;45461;-84
2022/05/02 06:53:40;;;;;;;;;33.50;26.00;;;;;13.54;48.21;100997.47;5046544;28;45429;-84
2022/05/02 06:56:44;;;;;;;;;22.50;21.25;;;;;13.72;47.70;101006.75;5068087;28;45409;-83
2022/05/02 06:59:25;;;;;;;;;30.00;24.25;;;;;14.08;47.31;101000.50;5019685;28;45505;-83
2022/05/02 07:01:57;;;;;;;;;33.75;30.25;;;;;14.25;46.79;101003.53;5028754;28;45518;-80
2022/05/02 07:04:44;;;;;;;;;35.75;27.00;;;;;14.49;46.34;101001.09;5026809;28;45460;-82
2022/05/02 07:07:35;;;;;;;;;27.00;25.75;;;;;14.49;45.96;100995.78;5021662;28;46027;-82
2022/05/02 07:10:03;;;;;;;;;34.00;27.50;;;;;14.51;45.82;100996.59;5025160;28;45404;-79
2022/05/02 07:12:31;;;;;;;;;31.25;24.50;;;;;14.55;45.61;100992.94;5020898;28;45564;-82
2022/05/02 07:15:11;;;;;;;;;30.00;23.00;;;;;14.55;45.72;101007.09;5035583;28;45526;-81
2022/05/02 07:17:42;;;;;;;;;30.50;27.75;;;;;14.55;45.53;100995.59;5036176;28;46213;-80
2022/05/02 07:20:22;;;;;;;;;28.00;25.00;;;;;14.61;46.08;100992.78;5033503;28;45466;-82
2022/05/02 07:23:08;;;;;;;;;13.25;13.25;;;;;14.71;45.33;100993.38;5029501;28;45481;-83
2022/05/02 07:25:37;;;;;;;;;26.50;22.00;;;;;14.75;45.24;100997.69;5049016;27;45523;-81
2022/05/02 07:28:18;;;;;;;;;33.50;30.00;;;;;14.78;45.47;100992.25;5083459;27;46403;-82
2022/05/02 07:30:46;;;;;;;;;36.50;29.50;;;;;14.92;45.05;100992.72;5084037;27;45478;-81
2022/05/02 07:33:12;;;;;;;;;29.25;24.50;;;;;15.14;44.78;100997.34;5081342;27;45483;-77
2022/05/02 07:35:40;;;;;;;;;33.75;29.50;;;;;15.48;44.57;101003.34;5084983;27;45657;-79
2022/05/02 07:38:07;;;;;;;;;29.00;27.00;;;;;15.73;43.45;100996.28;5065815;27;45617;-80
2022/05/02 07:40:33;;;;;;;;;35.75;26.50;;;;;15.96;42.69;100998.16;5065355;28;45501;-80
2022/05/02 07:43:00;;;;;;;;;30.25;24.75;;;;;16.26;44.19;101002.41;5062591;27;45520;-79
2022/05/02 07:45:30;;;;;;;;;30.75;24.00;;;;;16.61;43.25;100994.88;5076671;28;45380;-78
2022/05/02 07:48:04;;;;;;;;;24.50;21.75;;;;;16.89;41.89;100999.19;5058554;28;45610;-78
2022/05/02 07:50:29;;;;;;;;;28.50;25.50;;;;;17.15;41.95;100990.97;5056931;28;45400;-80
2022/05/02 07:52:57;;;;;;;;;30.50;23.75;;;;;17.62;40.31;100991.75;5056625;28;45397;-80
2022/05/02 07:55:23;;;;;;;;;28.00;22.50;;;;;18.15;39.31;100995.69;5069006;28;45453;-81
2022/05/02 07:57:50;;;;;;;;;13.00;11.00;;;;;18.54;37.84;101001.03;5083066;27;47011;-80
2022/05/02 08:00:16;;;;;;;;;35.00;30.50;;;;;18.73;37.83;100986.78;5063685;27;45535;-80
2022/05/02 08:02:42;;;;;;;;;44.75;36.00;;;;;19.17;37.21;101003.38;5065330;27;45448;-80
2022/05/02 08:05:08;;;;;;;;;31.25;25.00;;;;;19.51;36.43;100998.16;5063013;28;45485;-80
2022/05/02 08:07:37;;;;;;;;;35.50;27.50;;;;;19.89;35.31;100995.38;5062266;28;45503;-81
2022/05/02 08:10:35;;;;;;;;;21.75;21.50;;;;;20.17;34.78;100994.75;5064888;28;45506;-82
2022/05/02 08:13:14;;;;;;;;;23.75;23.50;;;;;20.47;34.96;100995.88;5058087;27;45409;-82
2022/05/02 08:15:56;;;;;;;;;28.00;27.00;;;;;20.73;34.14;100987.25;5068919;28;45292;-81
2022/05/02 08:18:40;;;;;;;;;42.00;39.75;;;;;21.02;33.56;100991.94;5060877;27;45582;-81
2022/05/02 08:21:10;;;;;;;;;25.25;22.25;;;;;21.19;33.71;100991.81;5073434;28;45484;-81
2022/05/02 08:30:10;;;;;;;;;30.75;24.75;;;;;22.09;31.86;100978.44;5061712;28;45901;-80
2022/05/02 08:32:59;;;;;;;;;35.75;30.50;;;;;22.15;32.20;100978.94;5059896;28;45506;-80
2022/05/02 08:35:58;;;;;;;;;39.50;32.50;;;;;22.14;31.97;100974.50;5069022;28;45507;-82
2022/05/02 08:38:23;;;;;;;;;43.00;29.75;;;;;22.09;31.93;100971.25;5068731;28;45374;-81
2022/05/02 08:41:24;;;;;;;;;31.50;27.00;;;;;22.19;31.71;100974.22;5063430;28;47008;-81
2022/05/02 08:44:08;;;;;;;;;36.00;32.25;;;;;22.44;31.85;100970.91;5067956;28;45469;-82
2022/05/02 08:47:11;;;;;;;;;30.00;25.50;;;;;22.33;31.72;100968.88;5059506;28;45551;-80
2022/05/02 08:49:55;;;;;;;;;34.75;29.50;;;;;22.42;31.89;100970.09;5071806;28;45533;-80
2022/05/02 08:52:29;;;;;;;;;31.50;28.75;;;;;22.34;31.67;100972.44;5062058;28;46116;-81
2022/05/02 08:55:15;;;;;;;;;41.50;34.50;;;;;22.22;32.05;100973.19;5065336;28;45312;-80
2022/05/02 08:58:16;;;;;;;;;39.50;34.00;;;;;22.00;31.84;100978.06;5068479;28;45246;-82
2022/05/02 09:01:19;;;;;;;;;35.00;32.25;;;;;21.85;32.54;100980.81;5081651;28;45389;-82
2022/05/02 09:04:06;;;;;;;;;36.50;32.50;;;;;21.90;32.38;100981.41;5094704;27;46094;-83
2022/05/02 09:06:53;;;;;;;;;36.25;26.50;;;;;22.14;32.47;100979.91;5083432;28;45398;-81
2022/05/02 09:09:40;;;;;;;;;35.75;30.50;;;;;21.87;32.54;100976.22;5074080;28;45452;-80
2022/05/02 09:12:57;;;;;;;;;35.75;28.00;;;;;21.93;32.55;100968.63;5078248;27;45456;-81
2022/05/02 09:15:35;;;;;;;;;40.50;30.00;;;;;21.98;32.67;100976.41;5051973;28;45406;-81
2022/05/02 09:18:23;;;;;;;;;50.50;43.75;;;;;21.53;33.04;100979.13;5042362;28;45541;-82
2022/05/02 09:20:59;;;;;;;;;36.50;30.25;;;;;21.53;33.28;100970.19;4973712;28;45553;-81
2022/05/02 09:23:30;;;;;;;;;43.75;37.25;;;;;21.58;32.94;100973.47;4974149;28;45549;-81
2022/05/02 09:26:07;;;;;;;;;33.75;25.00;;;;;21.60;32.92;100976.94;4977730;28;46696;-82
2022/05/02 09:28:38;;;;;;;;;37.00;29.00;;;;;21.46;33.20;100970.50;4977059;28;45456;-80
2022/05/02 09:31:22;;;;;;;;;35.50;31.00;;;;;21.66;33.29;100971.19;4974127;28;45445;-82
2022/05/02 09:34:02;;;;;;;;;34.75;32.00;;;;;21.99;33.06;100967.41;4973698;28;45333;-81
2022/05/02 09:36:30;;;;;;;;;36.25;30.75;;;;;22.18;32.60;100959.91;4974260;28;45474;-82
2022/05/02 09:39:02;;;;;;;;;31.75;27.00;;;;;22.49;32.38;100957.13;4972272;28;45403;-81
2022/05/02 09:42:03;;;;;;;;;39.25;34.75;;;;;22.60;31.57;100967.22;4972400;28;45602;-81
2022/05/02 09:50:34;;;;;;;;;40.25;36.50;;;;;23.36;31.05;100949.66;4988939;28;45578;-81
2022/05/02 09:53:36;;;;;;;;;34.00;27.75;;;;;23.35;31.61;100953.31;5014372;28;45428;-82
2022/05/02 09:59:21;;;;;;;;;31.50;31.00;;;;;23.79;30.45;100957.47;5064232;28;45469;-82
2022/05/02 10:01:50;;;;;;;;;36.00;25.00;;;;;23.71;30.19;100951.75;5060616;28;46081;-81
2022/05/02 10:04:41;;;;;;;;;63.50;53.00;;;;;23.63;29.96;100946.03;5061053;28;45580;-81
2022/05/02 10:07:10;;;;;;;;;71.50;55.00;;;;;23.83;29.97;100941.94;5056812;28;45345;-79
2022/05/02 10:09:57;;;;;;;;;64.00;53.67;;;;;24.42;30.01;100944.94;5068975;28;47687;-84
2022/05/02 10:12:22;;;;;;;;;107.00;92.67;;;;;24.72;29.64;100946.41;5071972;28;45454;-80
2022/05/02 10:15:17;;;;;;;;;112.75;105.75;;;;;24.61;29.79;100939.09;5070250;28;45465;-85
2022/05/02 10:18:04;;;;;;;;;105.00;91.00;;;;;24.79;29.34;100936.00;5065594;28;45405;-84
2022/05/02 10:21:01;;;;;;;;;102.25;85.00;;;;;24.65;29.23;100945.97;5067817;27;46262;-83
2022/05/02 10:23:44;;;;;;;;;98.00;78.33;;;;;24.53;29.73;100933.34;5066238;28;45516;-84
2022/05/02 10:26:14;;;;;;;;;96.33;78.00;;;;;24.53;30.22;100940.59;5070317;28;45580;-83
2022/05/02 10:29:17;;;;;;;;;107.00;93.25;;;;;24.65;29.66;100935.19;5070133;27;45458;-84
2022/05/02 10:31:51;;;;;;;;;83.67;70.00;;;;;24.80;28.99;100926.94;5082139;28;45596;-83
2022/05/02 10:34:19;;;;;;;;;32.25;28.00;;;;;24.65;29.32;100945.97;5081217;27;45318;-83
2022/05/02 10:36:50;;;;;;;;;43.75;38.50;;;;;24.50;28.62;100928.16;5072715;27;45472;-83
2022/05/02 10:39:47;;;;;;;;;57.00;48.50;;;;;24.73;29.00;100931.06;5068389;27;45379;-83
2022/05/02 10:42:18;;;;;;;;;20.00;17.50;;;;;24.73;29.11;100910.28;5068429;28;46811;-83
2022/05/02 10:45:05;;;;;;;;;32.50;31.75;;;;;24.91;28.72;100929.69;5069035;28;45456;-82
2022/05/02 10:47:44;;;;;;;;;25.75;22.50;;;;;24.58;29.12;100922.25;5066814;28;45349;-84
2022/05/02 10:50:17;;;;;;;;;18.50;17.25;;;;;24.69;28.92;100929.53;5073218;28;45425;-83
2022/05/02 10:52:45;;;;;;;;;29.00;27.75;;;;;24.59;29.19;100924.81;5066944;28;47079;-82
2022/05/02 10:55:18;;;;;;;;;25.50;23.00;;;;;24.15;29.71;100919.94;5075833;27;45429;-82
2022/05/02 10:57:55;;;;;;;;;23.75;19.50;;;;;24.21;29.31;100914.94;5060528;28;45591;-83
2022/05/02 11:00:23;;;;;;;;;32.00;27.00;;;;;24.24;29.81;100911.19;5088181;27;45480;-82
2022/05/02 11:03:10;;;;;;;;;29.00;23.50;;;;;23.94;30.11;100907.88;5058597;27;46889;-85
2022/05/02 11:06:02;;;;;;;;;27.00;22.75;;;;;23.95;30.23;100914.97;5062051;28;45462;-82
2022/05/02 11:08:46;;;;;;;;;24.50;21.75;;;;;23.88;30.09;100902.03;5072662;28;45474;-82
2022/05/02 11:11:27;;;;;;;;;23.75;21.00;;;;;23.51;30.48;100904.59;5062680;27;45741;-83
2022/05/02 11:14:20;;;;;;;;;28.75;23.25;;;;;23.26;31.05;100900.91;5066691;28;45506;-83
2022/05/02 11:16:59;;;;;;;;;20.75;17.50;;;;;22.60;32.12;100919.59;5067110;27;45608;-82
2022/05/02 11:22:37;;;;;;;;;32.75;28.50;;;;;22.53;32.23;100902.09;5065122;28;45311;-82
2022/05/02 11:25:24;;;;;;;;;23.00;18.50;;;;;22.87;31.87;100900.75;5070129;28;46263;-80
2022/05/02 11:28:11;;;;;;;;;20.25;16.50;;;;;23.16;32.05;100900.66;5060811;28;45433;-82
2022/05/02 11:30:52;;;;;;;;;14.00;9.00;;;;;23.19;31.78;100899.59;5065724;28;45488;-81
2022/05/02 11:33:38;;;;;;;;;12.00;9.00;;;;;23.16;31.87;100889.84;5075422;27;45535;-82
2022/05/02 11:36:35;;;;;;;;;26.25;22.75;;;;;22.69;31.99;100885.81;5064500;28;45493;-82
2022/05/02 11:39:05;;;;;;;;;16.00;15.00;;;;;22.44;32.30;100892.81;5059398;27;45453;-80
2022/05/02 11:41:32;;;;;;;;;28.00;27.25;;;;;22.27;32.51;100888.44;5076031;27;45731;-80
2022/05/02 11:44:11;;;;;;;;;25.25;25.25;;;;;21.96;33.08;100887.72;5078717;27;45408;-82
2022/05/02 11:47:08;;;;;;;;;14.25;7.75;;;;;21.84;33.55;100899.25;5060946;28;46097;-82
2022/05/02 11:49:52;;;;;;;;;23.00;20.75;;;;;21.89;33.18;100897.13;5063463;28;45656;-79
2022/05/02 11:52:32;;;;;;;;;20.50;17.75;;;;;21.65;33.76;100886.94;5064913;28;45428;-81
2022/05/02 11:54:58;;;;;;;;;22.00;18.50;;;;;21.70;33.40;100889.34;5066535;28;45398;-81
2022/05/02 11:57:29;;;;;;;;;23.75;18.00;;;;;21.77;33.90;100874.56;5057228;28;46181;-81
2022/05/02 12:00:14;;;;;;;;;26.25;22.25;;;;;21.88;33.98;100886.47;5066178;28;45436;-81
2022/05/02 12:02:56;;;;;;;;;33.25;29.25;;;;;21.89;34.07;100894.44;5067252;28;45524;-80
2022/05/02 12:05:40;;;;;;;;;23.00;21.25;;;;;21.98;33.54;100880.41;5065188;28;45437;-82
2022/05/02 12:08:08;;;;;;;;;33.50;28.25;;;;;22.27;33.60;100885.75;5072043;27;46262;-82
2022/05/02 12:10:41;;;;;;;;;22.75;22.75;;;;;22.33;33.24;100874.66;5062274;28;45477;-81